Time;durP1;ratioP1;P1;durP2;ratioP2;P2;SDS_P1;SDS_P2;PMS_P1;PMS_P2;Temp;Humidity;BMP_temperature;BMP_pressure;BME280_temperature;BME280_humidity;BME280_pressure;Samples;Min_cycle;Max_cycle;Signal;HPM_P1;HPM_P2
2021/12/21 00:01:28;;;;;;;3.87;1.97;;;;;;;-7.28;98.41;97148.75;5072011;28;20337;-66
2021/12/21 00:03:55;;;;;;;8.23;3.00;;;;;;;-7.31;98.55;97155.63;5069050;28;20286;-66
2021/12/21 00:06:21;;;;;;;3.70;1.97;;;;;;;-7.37;98.49;97150.56;5071493;28;20318;-66
2021/12/21 00:08:48;;;;;;;3.53;1.60;;;;;;;-7.40;99.27;97153.16;5070940;28;20282;-66
2021/12/21 00:11:16;;;;;;;5.83;2.03;;;;;;;-7.36;99.15;97153.13;5069014;28;20286;-66
2021/12/21 00:13:58;;;;;;;5.50;2.20;;;;;;;-7.36;99.58;97147.16;5070634;28;20286;-67
2021/12/21 00:16:45;;;;;;;5.47;2.40;;;;;;;-7.20;99.57;97159.75;5070387;28;20289;-67
2021/12/21 00:19:37;;;;;;;5.47;2.03;;;;;;;-7.15;99.60;97155.44;5068368;28;20291;-67
2021/12/21 00:22:11;;;;;;;3.30;1.67;;;;;;;-7.10;98.96;97153.69;5070129;28;20290;-66
2021/12/21 00:24:46;;;;;;;6.30;2.73;;;;;;;-7.08;99.45;97151.97;5069834;28;20644;-67
2021/12/21 00:27:14;;;;;;;3.97;1.70;;;;;;;-7.10;98.92;97151.13;5069954;28;20330;-66
2021/12/21 00:29:41;;;;;;;4.00;1.60;;;;;;;-7.02;99.30;97151.88;5069956;28;20696;-67
2021/12/21 00:32:09;;;;;;;4.83;1.60;;;;;;;-6.94;98.99;97157.72;5070030;28;20297;-67
2021/12/21 00:34:39;;;;;;;3.53;1.60;;;;;;;-6.94;99.19;97160.28;5069858;28;20371;-67
2021/12/21 00:37:07;;;;;;;5.07;2.17;;;;;;;-6.84;99.53;97155.91;5069753;28;20295;-67
2021/12/21 00:39:34;;;;;;;6.23;1.23;;;;;;;-6.86;99.16;97161.06;5069904;28;20365;-67
2021/12/21 00:42:02;;;;;;;2.57;1.77;;;;;;;-6.84;99.00;97161.88;5069913;28;20751;-68
2021/12/21 00:44:28;;;;;;;9.83;2.80;;;;;;;-6.81;99.02;97172.09;5070011;28;20294;-66
2021/12/21 00:46:55;;;;;;;4.73;2.53;;;;;;;-6.82;98.46;97167.84;5069989;28;20291;-67
2021/12/21 00:49:24;;;;;;;5.17;1.50;;;;;;;-6.84;98.68;97173.81;5070142;28;20297;-67
2021/12/21 00:51:52;;;;;;;2.30;1.80;;;;;;;-6.87;98.31;97168.78;5069727;28;20302;-66
2021/12/21 00:54:19;;;;;;;3.57;1.30;;;;;;;-6.90;98.43;97173.91;5069938;28;20638;-67
2021/12/21 00:56:46;;;;;;;3.93;1.60;;;;;;;-6.88;98.09;97170.47;5069774;28;20283;-67
2021/12/21 00:59:13;;;;;;;4.80;1.70;;;;;;;-6.87;98.03;97161.91;5071338;28;20346;-67
2021/12/21 01:01:42;;;;;;;1.50;1.10;;;;;;;-6.86;97.24;97165.34;5069563;28;20291;-66
2021/12/21 01:04:18;;;;;;;4.40;1.30;;;;;;;-6.86;96.35;97153.41;5069902;28;20318;-67
2021/12/21 01:06:58;;;;;;;3.40;1.80;;;;;;;-6.83;95.35;97168.69;5069726;28;20290;-66
2021/12/21 01:09:51;;;;;;;4.77;1.60;;;;;;;-6.81;95.34;97166.97;5069683;28;20301;-66
2021/12/21 01:12:32;;;;;;;2.43;1.10;;;;;;;-6.93;92.54;97150.91;5072668;28;20380;-68
2021/12/21 01:15:10;;;;;;;1.77;1.17;;;;;;;-6.98;91.16;97174.00;5073732;28;20048;-68
2021/12/21 01:17:49;;;;;;;3.03;1.40;;;;;;;-7.00;90.30;97170.63;5073645;28;20289;-68
2021/12/21 01:20:28;;;;;;;4.77;1.40;;;;;;;-7.04;90.26;97174.06;5073549;28;20310;-68
2021/12/21 01:23:14;;;;;;;2.90;1.83;;;;;;;-7.14;89.86;97171.63;5073181;28;20348;-68
2021/12/21 01:25:48;;;;;;;3.40;1.53;;;;;;;-7.21;89.94;97172.53;5073415;28;20348;-68
2021/12/21 01:28:21;;;;;;;4.03;1.40;;;;;;;-7.17;90.16;97187.00;5073170;28;20838;-67
2021/12/21 01:30:56;;;;;;;;;;;;;;;-7.10;90.71;97180.94;5073349;28;20834;-67
2021/12/21 01:33:38;;;;;;;;;;;;;;;-7.08;91.59;97182.66;5072915;28;19924;-68
2021/12/21 01:36:14;;;;;;;4.57;1.77;;;;;;;-7.12;91.31;97188.63;5072597;28;19962;-67
2021/12/21 01:38:50;;;;;;;2.93;1.50;;;;;;;-7.13;92.22;97191.25;5072650;28;20282;-68
2021/12/21 01:41:28;;;;;;;3.90;1.70;;;;;;;-7.15;91.99;97191.25;5072580;28;20283;-68
2021/12/21 01:44:05;;;;;;;6.00;2.00;;;;;;;-7.17;92.60;97203.19;5072242;28;20385;-66
2021/12/21 01:52:01;;;;;;;3.63;2.27;;;;;;;-7.11;92.67;97215.06;5072761;28;20802;-67
2021/12/21 01:54:27;;;;;;;5.63;3.23;;;;;;;-7.21;92.45;97218.56;5074244;28;20282;-67
2021/12/21 01:56:56;;;;;;;4.17;2.30;;;;;;;-7.27;92.78;97216.94;5073958;28;20291;-68
2021/12/21 01:59:22;;;;;;;4.20;1.90;;;;;;;-7.29;92.59;97212.69;5072399;28;20802;-68
2021/12/21 02:01:53;;;;;;;3.37;1.87;;;;;;;-7.36;92.68;97205.94;5072115;28;20298;-68
2021/12/21 02:04:20;;;;;;;3.70;2.00;;;;;;;-7.38;92.12;97208.50;5072070;28;20298;-68
2021/12/21 02:06:49;;;;;;;2.20;1.97;;;;;;;-7.35;92.91;97213.59;5071013;28;20305;-68
2021/12/21 02:09:19;;;;;;;4.97;2.53;;;;;;;-7.35;91.97;97213.59;5069879;28;20690;-67
2021/12/21 02:11:47;;;;;;;5.47;1.97;;;;;;;-7.35;91.74;97211.03;5073279;28;20739;-68
2021/12/21 02:14:16;;;;;;;4.03;2.40;;;;;;;-7.32;91.63;97213.56;5071512;28;20297;-67
2021/12/21 02:16:53;;;;;;;8.30;2.27;;;;;;;-7.31;91.21;97220.38;5072000;28;20293;-68
2021/12/21 02:19:25;;;;;;;2.97;1.47;;;;;;;-7.24;90.97;97209.22;5071628;28;20389;-67
2021/12/21 02:21:56;;;;;;;3.43;1.83;;;;;;;-7.30;91.12;97204.19;5070444;28;20393;-68
2021/12/21 02:24:29;;;;;;;2.07;1.67;;;;;;;-7.26;90.89;97216.09;5071742;28;20302;-68
2021/12/21 02:27:06;;;;;;;3.05;1.60;;;;;;;-7.20;90.37;97216.00;5072837;28;20290;-67
2021/12/21 02:29:35;;;;;;;2.40;1.73;;;;;;;-7.16;90.21;97221.94;5071568;28;20055;-68
2021/12/21 02:32:04;;;;;;;3.80;2.00;;;;;;;-7.18;89.75;97224.53;5071699;28;20290;-69
2021/12/21 02:34:31;;;;;;;3.73;1.63;;;;;;;-7.17;88.65;97226.22;5071648;28;20294;-65
2021/12/21 02:36:59;;;;;;;2.20;1.60;;;;;;;-7.09;89.10;97226.16;5071383;28;20386;-65
2021/12/21 02:39:28;;;;;;;6.23;1.73;;;;;;;-7.16;88.87;97232.19;5071498;28;20297;-66
2021/12/21 02:41:55;;;;;;;2.67;1.77;;;;;;;-7.22;89.76;97235.66;5071304;28;20281;-66
2021/12/21 02:44:22;;;;;;;3.93;1.77;;;;;;;-7.23;90.65;97233.97;5071212;28;20299;-65
2021/12/21 02:46:49;;;;;;;4.80;1.87;;;;;;;-7.27;90.86;97227.16;5071266;28;20287;-65
2021/12/21 02:49:16;;;;;;;9.97;3.70;;;;;;;-7.28;91.10;97230.59;5072686;28;20325;-66
2021/12/21 02:51:45;;;;;;;3.43;1.90;;;;;;;-7.27;91.17;97254.44;5071603;28;20340;-66
2021/12/21 02:54:15;;;;;;;7.80;2.13;;;;;;;-7.26;91.16;97233.97;5071139;28;20624;-65
2021/12/21 02:56:42;;;;;;;5.73;2.10;;;;;;;-7.31;91.43;97247.69;5070988;28;20358;-64
2021/12/21 02:59:09;;;;;;;6.73;2.40;;;;;;;-7.30;92.27;97250.22;5071238;28;20291;-65
2021/12/21 03:01:36;;;;;;;4.60;2.60;;;;;;;-7.29;92.61;97251.91;5071074;28;20290;-64
2021/12/21 03:04:03;;;;;;;6.27;2.97;;;;;;;-7.33;92.31;97252.78;5070698;28;20301;-65
2021/12/21 03:07:08;;;;;;;4.87;2.70;;;;;;;-7.43;93.00;97251.16;5072090;28;20290;-65
2021/12/21 03:09:42;;;;;;;6.13;2.67;;;;;;;-7.36;93.05;97255.38;5070714;28;20365;-65
2021/12/21 03:12:30;;;;;;;4.30;2.27;;;;;;;-7.35;92.35;97261.34;5070515;28;20290;-65
2021/12/21 03:14:57;;;;;;;7.10;2.13;;;;;;;-7.33;92.95;97252.78;5070951;28;20286;-65
2021/12/21 03:17:23;;;;;;;4.13;2.30;;;;;;;-7.33;92.79;97244.25;5072424;28;20287;-65
2021/12/21 03:19:50;;;;;;;5.60;2.33;;;;;;;-7.34;93.10;97240.88;5071922;28;20286;-65
2021/12/21 03:22:17;;;;;;;7.07;3.00;;;;;;;-7.36;92.72;97236.63;5070453;28;20290;-65
2021/12/21 03:24:45;;;;;;;4.87;2.60;;;;;;;-7.45;93.43;97232.47;5070253;28;20311;-65
2021/12/21 03:27:13;;;;;;;4.77;2.00;;;;;;;-7.52;93.90;97248.72;5069250;28;20283;-66
2021/12/21 03:29:40;;;;;;;7.03;2.67;;;;;;;-7.54;94.45;97241.88;5070519;28;20375;-66
2021/12/21 03:32:07;;;;;;;8.07;2.53;;;;;;;-7.63;94.57;97239.41;5070445;28;20380;-65
2021/12/21 03:34:34;;;;;;;7.60;2.80;;;;;;;-7.60;95.07;97249.63;5069560;28;20630;-66
2021/12/21 03:37:03;;;;;;;5.90;2.30;;;;;;;-7.50;95.91;97257.19;5070424;28;20761;-66
2021/12/21 03:39:30;;;;;;;6.27;1.67;;;;;;;-7.52;96.21;97261.50;5071077;28;20314;-66
2021/12/21 03:42:00;;;;;;;6.07;3.70;;;;;;;-7.47;96.82;97263.97;5072038;28;20352;-66
2021/12/21 03:44:28;;;;;;;7.10;2.47;;;;;;;-7.50;98.69;97259.75;5071385;28;20305;-66
2021/12/21 03:46:56;;;;;;;4.37;2.57;;;;;;;-7.47;99.67;97263.97;5070240;28;20755;-66
2021/12/21 03:49:52;;;;;;;7.93;2.87;;;;;;;-7.49;100.00;97263.16;5069975;28;20290;-66
2021/12/21 03:52:22;;;;;;;6.53;2.90;;;;;;;-7.48;100.00;97268.25;5069964;28;20290;-66
2021/12/21 03:54:51;;;;;;;6.17;3.43;;;;;;;-7.39;100.00;97262.22;5069887;28;20293;-65
2021/12/21 03:57:20;;;;;;;6.40;2.67;;;;;;;-7.45;100.00;97262.28;5069705;28;20378;-65
2021/12/21 03:59:48;;;;;;;7.67;3.73;;;;;;;-7.46;100.00;97263.97;5070003;28;20377;-65
2021/12/21 04:02:16;;;;;;;9.73;3.03;;;;;;;-7.41;100.00;97272.47;5070089;28;20759;-65
2021/12/21 04:04:44;;;;;;;5.97;2.87;;;;;;;-7.42;100.00;97263.09;5068196;28;20750;-66
2021/12/21 04:07:12;;;;;;;8.57;3.77;;;;;;;-7.32;100.00;97263.84;5069958;28;20290;-66
2021/12/21 04:09:39;;;;;;;6.53;2.90;;;;;;;-7.31;100.00;97268.94;5070094;28;20296;-65
2021/12/21 04:12:06;;;;;;;5.60;2.80;;;;;;;-7.44;100.00;97264.81;5069902;28;20298;-66
2021/12/21 04:14:35;;;;;;;6.53;2.70;;;;;;;-7.37;100.00;97265.59;5070008;28;20293;-64
2021/12/21 04:17:03;;;;;;;5.10;2.63;;;;;;;-7.28;100.00;97260.44;5068555;28;20370;-65
2021/12/21 04:19:29;;;;;;;5.53;2.70;;;;;;;-7.28;100.00;97253.59;5069721;28;20297;-63
2021/12/21 04:21:56;;;;;;;7.00;2.80;;;;;;;-7.31;100.00;97265.56;5069563;28;20287;-65
2021/12/21 04:24:23;;;;;;;8.00;3.30;;;;;;;-7.34;100.00;97266.44;5070335;28;20324;-66
2021/12/21 04:26:50;;;;;;;6.53;3.17;;;;;;;-7.33;100.00;97273.25;5070082;28;20347;-66
2021/12/21 04:29:17;;;;;;;7.27;4.07;;;;;;;-7.33;100.00;97280.06;5069584;28;20362;-65
2021/12/21 04:31:46;;;;;;;9.70;3.70;;;;;;;-7.34;100.00;97280.94;5069530;28;20636;-65
2021/12/21 04:34:13;;;;;;;6.30;3.13;;;;;;;-7.29;100.00;97287.69;5069349;28;20348;-65
2021/12/21 04:36:40;;;;;;;8.90;3.47;;;;;;;-7.29;100.00;97300.50;5069755;28;20325;-65
2021/12/21 04:39:17;;;;;;;12.90;4.30;;;;;;;-7.37;100.00;97293.72;5069495;28;20294;-65
2021/12/21 04:41:44;;;;;;;7.50;4.00;;;;;;;-7.42;100.00;97300.59;5069464;28;20386;-65
2021/12/21 04:44:11;;;;;;;12.60;3.57;;;;;;;-7.38;100.00;97300.53;5068973;28;20728;-65
2021/12/21 04:46:38;;;;;;;5.80;3.20;;;;;;;-7.42;100.00;97290.38;5073563;28;20696;-65
2021/12/21 04:49:06;;;;;;;8.37;4.30;;;;;;;-7.38;99.89;97299.72;5073137;28;20283;-66
2021/12/21 04:51:33;;;;;;;6.77;2.80;;;;;;;-7.39;98.79;97303.97;5072156;28;20286;-65
2021/12/21 04:54:00;;;;;;;8.40;2.53;;;;;;;-7.42;97.62;97311.66;5073292;28;20275;-65
2021/12/21 04:56:27;;;;;;;6.83;3.07;;;;;;;-7.43;97.21;97304.00;5073277;28;20279;-65
2021/12/21 04:58:53;;;;;;;6.57;2.90;;;;;;;-7.44;96.22;97299.75;5073421;28;20714;-66
2021/12/21 05:01:20;;;;;;;5.93;3.17;;;;;;;-7.47;96.01;97303.19;5073727;28;20286;-66
2021/12/21 05:03:47;;;;;;;6.60;2.80;;;;;;;-7.39;95.49;97311.63;5073466;28;20286;-66
2021/12/21 05:06:17;;;;;;;6.37;2.97;;;;;;;-7.41;94.98;97307.41;5073802;28;20299;-65
2021/12/21 05:08:52;;;;;;;18.27;3.67;;;;;;;-7.36;94.88;97323.53;5073829;28;20808;-65
2021/12/21 05:11:19;;;;;;;8.00;3.43;;;;;;;-7.37;94.52;97311.63;5072119;28;20309;-65
2021/12/21 05:13:46;;;;;;;8.90;2.93;;;;;;;-7.32;94.06;97312.44;5073369;28;20289;-65
2021/12/21 05:16:13;;;;;;;5.63;3.27;;;;;;;-7.33;93.79;97305.63;5073309;28;20294;-65
2021/12/21 05:18:40;;;;;;;6.50;2.87;;;;;;;-7.32;93.16;97305.63;5073448;28;20286;-66
2021/12/21 05:21:07;;;;;;;4.83;2.83;;;;;;;-7.28;92.30;97302.16;5070757;28;20332;-66
2021/12/21 05:23:35;;;;;;;3.83;1.97;;;;;;;-7.31;92.33;97296.25;5073386;28;20694;-66
2021/12/21 05:26:01;;;;;;;5.40;2.10;;;;;;;-7.30;91.60;97300.50;5073743;28;20290;-66
2021/12/21 05:28:28;;;;;;;4.50;2.60;;;;;;;-7.30;91.12;97308.16;5073435;28;20752;-66
2021/12/21 05:30:55;;;;;;;8.03;3.30;;;;;;;-7.33;89.81;97303.94;5074069;28;20282;-66
2021/12/21 05:33:22;;;;;;;4.20;2.27;;;;;;;-7.36;89.79;97316.72;5073271;28;20283;-66
2021/12/21 05:35:49;;;;;;;10.60;4.07;;;;;;;-7.36;89.87;97308.19;5074466;28;20279;-66
2021/12/21 05:38:19;;;;;;;9.90;4.00;;;;;;;-7.34;90.33;97306.50;5073675;28;20287;-66
2021/12/21 05:40:47;;;;;;;10.23;4.13;;;;;;;-7.29;90.37;97305.59;5073205;28;20386;-65
2021/12/21 05:43:15;;;;;;;6.53;3.63;;;;;;;-7.32;90.25;97310.72;5073219;28;20313;-65
2021/12/21 05:45:42;;;;;;;5.27;2.60;;;;;;;-7.38;90.95;97310.78;5071372;28;20309;-66
2021/12/21 05:48:09;;;;;;;7.20;3.10;;;;;;;-7.63;90.53;97305.88;5073963;28;20305;-66
2021/12/21 05:50:36;;;;;;;3.43;2.23;;;;;;;-7.77;91.00;97315.31;5074745;28;20291;-65
2021/12/21 05:53:03;;;;;;;7.03;3.67;;;;;;;-7.87;90.89;97314.53;5072582;28;20286;-66
2021/12/21 05:55:30;;;;;;;5.87;2.47;;;;;;;-7.91;91.97;97314.53;5072514;28;20298;-66
2021/12/21 05:57:58;;;;;;;8.10;3.50;;;;;;;-7.97;91.79;97312.03;5072405;28;20291;-66
2021/12/21 06:00:27;;;;;;;6.93;2.63;;;;;;;-8.02;91.76;97317.16;5072837;28;20735;-66
2021/12/21 06:02:55;;;;;;;12.83;3.63;;;;;;;-8.06;91.28;97312.06;5072651;28;20370;-66
2021/12/21 06:05:22;;;;;;;6.57;2.70;;;;;;;-8.08;90.68;97331.69;5071386;28;20294;-66
2021/12/21 06:07:52;;;;;;;3.03;1.50;;;;;;;-8.12;90.55;97310.41;5072414;28;20287;-66
2021/12/21 06:10:24;;;;;;;3.53;1.87;;;;;;;-8.16;89.36;97326.59;5072729;28;20283;-65
2021/12/21 06:15:52;;;;;;;6.90;1.70;;;;;;;-8.21;87.92;97332.56;5046444;28;20371;-69
2021/12/21 06:26:30;;;;;;;3.57;1.50;;;;;;;-8.11;84.90;97332.56;5073834;28;20286;-70
2021/12/21 06:28:57;;;;;;;5.07;1.67;;;;;;;-8.09;84.28;97333.38;5073640;28;20290;-69
2021/12/21 06:31:26;;;;;;;4.90;2.00;;;;;;;-8.03;83.61;97337.59;5074275;28;20834;-70
2021/12/21 06:33:54;;;;;;;6.77;2.73;;;;;;;-7.99;83.39;97337.59;5073695;28;20294;-70
2021/12/21 06:36:22;;;;;;;5.03;2.90;;;;;;;-8.00;82.44;97353.78;5073338;28;20348;-69
2021/12/21 06:38:49;;;;;;;7.70;2.67;;;;;;;-8.00;81.73;97343.56;5072774;28;20309;-69
2021/12/21 06:41:16;;;;;;;8.73;3.07;;;;;;;-7.91;81.17;97345.19;5073788;28;20755;-69
2021/12/21 06:43:44;;;;;;;9.37;3.40;;;;;;;-7.85;80.75;97346.03;5072462;28;20642;-69
2021/12/21 06:46:17;;;;;;;9.97;4.27;;;;;;;-7.81;79.84;97347.72;5070638;28;20751;-69
2021/12/21 06:51:37;;;;;;;7.53;3.50;;;;;;;-7.78;78.92;97350.25;5072210;28;20275;-69
2021/12/21 06:54:04;;;;;;;;;;;;;;;-7.73;79.42;97345.09;5072978;28;20297;-69
2021/12/21 06:56:31;;;;;;;5.67;2.47;;;;;;;-7.65;79.47;97344.19;5072833;28;20280;-70
2021/12/21 06:58:57;;;;;;;10.70;3.83;;;;;;;-7.58;79.68;97343.31;5072439;28;20283;-70
2021/12/21 07:01:28;;;;;;;10.43;3.13;;;;;;;-7.52;79.35;97358.63;5071371;28;20287;-70
2021/12/21 07:03:58;;;;;;;11.07;4.20;;;;;;;-7.43;79.98;97358.53;5072225;28;20311;-71
2021/12/21 07:06:25;;;;;;;15.43;5.47;;;;;;;-7.31;80.01;97355.88;5072490;28;20290;-70
2021/12/21 07:09:00;;;;;;;12.03;4.93;;;;;;;-7.28;79.88;97360.97;5070313;28;20390;-71
2021/12/21 07:11:31;;;;;;;14.50;5.53;;;;;;;-7.23;80.27;97371.19;5071976;28;20275;-70
2021/12/21 07:19:29;;;;;;;10.60;4.43;;;;;;;-7.07;81.09;97372.75;5069371;28;20278;-69
2021/12/21 07:21:56;;;;;;;12.43;4.73;;;;;;;-7.15;81.28;97366.84;5071687;28;20348;-69
2021/12/21 07:24:23;;;;;;;18.83;5.77;;;;;;;-7.11;81.86;97366.84;5071349;28;20290;-69
2021/12/21 07:26:50;;;;;;;12.53;5.27;;;;;;;-7.03;81.95;97359.94;5071557;28;20290;-71
2021/12/21 07:29:17;;;;;;;13.03;5.60;;;;;;;-6.88;81.36;97364.06;5072240;28;20290;-69
2021/12/21 07:31:45;;;;;;;12.57;4.70;;;;;;;-6.74;81.16;97363.09;5072581;28;20378;-70
2021/12/21 07:34:11;;;;;;;11.20;4.07;;;;;;;-6.65;80.68;97367.28;5072148;28;20294;-69
2021/12/21 07:36:42;;;;;;;15.83;5.13;;;;;;;-6.53;80.81;97370.56;5071411;28;20366;-70
2021/12/21 07:39:11;;;;;;;10.33;4.57;;;;;;;-6.54;79.76;97386.78;5071147;28;20286;-69
2021/12/21 07:41:39;;;;;;;13.40;6.03;;;;;;;-6.47;78.89;97378.16;5069751;28;20295;-70
2021/12/21 07:44:06;;;;;;;10.37;3.87;;;;;;;-6.62;78.72;97391.13;5070163;28;20307;-70
2021/12/21 07:46:33;;;;;;;13.53;4.83;;;;;;;-6.58;79.16;97403.03;5069716;28;20028;-70
2021/12/21 07:49:00;;;;;;;10.77;4.70;;;;;;;-6.65;78.30;97409.06;5071078;28;20297;-69
2021/12/21 07:51:27;;;;;;;9.50;2.97;;;;;;;-6.60;78.07;97398.78;5069158;28;20290;-69
2021/12/21 07:53:56;;;;;;;7.47;2.90;;;;;;;-6.79;78.37;97407.50;5070837;28;20095;-70
2021/12/21 07:56:23;;;;;;;10.40;3.70;;;;;;;-6.77;78.17;97405.75;5070814;28;20286;-71
2021/12/21 07:58:58;;;;;;;7.37;3.60;;;;;;;-6.84;77.95;97412.66;5071253;28;20279;-70
2021/12/21 08:01:25;;;;;;;10.10;3.13;;;;;;;-6.92;78.53;97400.78;5071204;28;20318;-69
2021/12/21 08:03:53;;;;;;;7.30;2.80;;;;;;;-6.86;78.42;97421.19;5070828;28;20297;-70
2021/12/21 08:06:21;;;;;;;8.30;3.60;;;;;;;-6.92;78.59;97418.69;5070568;28;20301;-70
2021/12/21 08:08:49;;;;;;;10.00;3.40;;;;;;;-6.97;79.83;97421.28;5071248;28;20298;-70
2021/12/21 08:11:28;;;;;;;7.83;3.30;;;;;;;-6.91;80.00;97423.78;5071458;28;20826;-69
2021/12/21 08:13:56;;;;;;;10.40;4.47;;;;;;;-6.90;80.39;97416.97;5070615;28;20621;-71
2021/12/21 08:16:23;;;;;;;9.60;3.47;;;;;;;-6.98;80.81;97431.53;5072446;28;20283;-69
2021/12/21 08:18:50;;;;;;;8.40;3.70;;;;;;;-7.07;80.55;97424.78;5071239;28;20286;-70
2021/12/21 08:21:18;;;;;;;11.10;3.80;;;;;;;-7.11;81.03;97435.88;5071767;28;20289;-69
2021/12/21 08:23:45;;;;;;;12.97;4.77;;;;;;;-7.11;81.41;97448.69;5071413;28;20305;-70
2021/12/21 08:26:13;;;;;;;9.40;4.20;;;;;;;-7.26;81.65;97460.69;5070815;28;21303;-69
2021/12/21 08:28:41;;;;;;;9.07;2.90;;;;;;;-7.38;83.16;97464.16;5071493;28;20287;-69
2021/12/21 08:31:10;;;;;;;2.97;1.83;;;;;;;-7.51;84.34;97469.34;5071108;28;20342;-70
2021/12/21 08:33:37;;;;;;;2.87;1.30;;;;;;;-7.62;86.21;97484.75;5071340;28;20373;-71
2021/12/21 08:36:04;;;;;;;2.03;1.47;;;;;;;-7.58;87.58;97480.47;5069993;28;20325;-71
2021/12/21 08:38:32;;;;;;;3.37;2.03;;;;;;;-7.47;87.69;97479.56;5071201;28;20278;-70
2021/12/21 08:41:00;;;;;;;8.63;2.20;;;;;;;-7.51;88.14;97487.25;5071287;28;20296;-70
2021/12/21 08:43:30;;;;;;;2.63;1.73;;;;;;;-7.41;88.55;97486.34;5070633;28;20818;-69
2021/12/21 08:45:59;;;;;;;2.63;1.80;;;;;;;-7.46;88.68;97480.41;5069906;28;20325;-70
2021/12/21 08:48:27;;;;;;;6.17;1.80;;;;;;;-7.45;88.77;97492.34;5070393;28;20301;-70
2021/12/21 08:50:57;;;;;;;5.23;2.00;;;;;;;-7.49;89.25;97501.72;5069548;28;20282;-70
2021/12/21 08:53:25;;;;;;;2.97;1.83;;;;;;;-7.47;89.88;97491.47;5070262;28;20282;-70
2021/12/21 08:55:53;;;;;;;3.20;1.47;;;;;;;-7.61;90.10;97511.16;5068222;28;20370;-70
2021/12/21 08:58:20;;;;;;;6.03;2.47;;;;;;;-7.76;91.01;97508.63;5086027;28;20369;-70
2021/12/21 09:00:48;;;;;;;6.07;2.57;;;;;;;-7.60;92.52;97513.69;5069978;28;20291;-70
2021/12/21 09:03:17;;;;;;;5.57;2.10;;;;;;;-7.64;90.12;97514.56;5068924;28;20302;-70
2021/12/21 09:05:44;;;;;;;4.90;2.00;;;;;;;-7.78;87.80;97518.88;5070540;28;20299;-69
2021/12/21 09:08:11;;;;;;;5.53;2.63;;;;;;;-7.91;85.15;97512.09;5070393;28;20294;-69
2021/12/21 09:10:39;;;;;;;6.27;2.13;;;;;;;-7.89;85.50;97528.28;5070444;28;20291;-71
2021/12/21 09:13:07;;;;;;;2.00;1.30;;;;;;;-7.90;83.64;97516.34;5068976;28;20286;-68
2021/12/21 09:15:34;;;;;;;1.77;0.90;;;;;;;-7.94;83.01;97527.41;5069498;28;20318;-69
2021/12/21 09:18:01;;;;;;;2.63;1.33;;;;;;;-7.94;81.78;97535.09;5070629;28;20782;-69
2021/12/21 09:20:31;;;;;;;3.03;1.03;;;;;;;-8.01;80.61;97550.44;5070458;28;20282;-69
2021/12/21 09:22:59;;;;;;;4.30;1.50;;;;;;;-8.10;80.10;97561.50;5070435;28;20336;-70
2021/12/21 09:25:27;;;;;;;3.43;1.73;;;;;;;-8.07;80.46;97558.09;5069663;28;20308;-70
2021/12/21 09:27:55;;;;;;;8.70;2.53;;;;;;;-7.85;79.80;97549.53;5069785;28;20298;-71
2021/12/21 09:30:23;;;;;;;3.53;2.23;;;;;;;-7.61;79.83;97559.72;5069969;28;20294;-71
2021/12/21 09:32:52;;;;;;;16.07;8.30;;;;;;;-7.60;78.01;97552.03;5071813;28;20339;-70
2021/12/21 09:35:19;;;;;;;8.90;3.10;;;;;;;-7.49;77.78;97550.28;5073839;28;20286;-70
2021/12/21 09:37:48;;;;;;;3.10;1.50;;;;;;;-7.69;77.19;97554.63;5073354;28;21805;-70
2021/12/21 09:40:17;;;;;;;4.97;1.87;;;;;;;-7.94;76.49;97568.28;5072466;28;20282;-71
2021/12/21 09:42:44;;;;;;;3.80;1.67;;;;;;;-8.14;76.00;97571.72;5074707;28;20286;-70
2021/12/21 09:45:12;;;;;;;9.63;2.93;;;;;;;-8.25;75.90;97569.19;5073075;28;20312;-70
2021/12/21 09:47:39;;;;;;;4.13;2.23;;;;;;;-8.26;74.96;97570.03;5073446;28;20640;-70
2021/12/21 09:50:08;;;;;;;7.60;2.20;;;;;;;-7.90;73.90;97566.59;5073093;28;20290;-70
2021/12/21 09:52:35;;;;;;;6.73;1.90;;;;;;;-7.38;73.00;97569.00;5072046;28;20302;-70
2021/12/21 09:55:07;;;;;;;9.53;2.63;;;;;;;-7.16;71.89;97573.16;5072049;28;20282;-70
2021/12/21 09:57:34;;;;;;;4.60;2.03;;;;;;;-7.06;70.68;97574.81;5071365;28;20286;-69
2021/12/21 10:00:01;;;;;;;6.43;2.07;;;;;;;-6.92;70.76;97578.16;5073466;28;20059;-70
2021/12/21 10:02:35;;;;;;;4.73;2.47;;;;;;;-6.68;70.11;97578.00;5074096;28;20282;-70
2021/12/21 10:05:06;;;;;;;3.20;1.23;;;;;;;-6.55;69.67;97584.78;5073440;28;20489;-69
2021/12/21 10:07:34;;;;;;;3.27;1.47;;;;;;;-6.61;69.21;97589.09;5072539;28;20075;-69
2021/12/21 10:10:11;;;;;;;6.87;2.07;;;;;;;-6.67;67.97;97597.66;5072993;28;20051;-70
2021/12/21 10:12:39;;;;;;;3.77;1.83;;;;;;;-6.96;66.58;97591.84;5072826;28;20329;-60
2021/12/21 10:15:09;;;;;;;5.03;3.00;;;;;;;-7.46;66.42;97593.72;5071116;28;20282;-61
2021/12/21 10:17:37;;;;;;;5.20;2.10;;;;;;;-7.86;66.70;97597.22;5073462;28;20051;-61
2021/12/21 10:20:06;;;;;;;1.80;1.30;;;;;;;-8.13;67.31;97596.41;5071698;28;20283;-60
2021/12/21 10:22:33;;;;;;;5.27;1.63;;;;;;;-8.36;67.62;97603.22;5071833;28;20287;-60
2021/12/21 10:25:00;;;;;;;5.13;1.77;;;;;;;-8.22;67.97;97616.84;5070271;28;20766;-61
2021/12/21 10:27:28;;;;;;;2.23;1.30;;;;;;;-7.50;66.16;97597.16;5071529;28;20287;-61
2021/12/21 10:29:57;;;;;;;2.77;1.50;;;;;;;-8.10;64.77;97616.84;5071785;28;20287;-60
2021/12/21 10:32:27;;;;;;;2.83;1.40;;;;;;;-8.35;65.70;97607.44;5071528;28;20279;-61
2021/12/21 10:34:58;;;;;;;2.67;1.47;;;;;;;-8.16;67.07;97620.22;5071237;28;20283;-62
2021/12/21 10:37:27;;;;;;;4.00;1.60;;;;;;;-7.78;66.91;97626.19;5071457;28;20293;-62
2021/12/21 10:40:17;;;;;;;4.37;2.10;;;;;;;-7.49;66.88;97626.13;5071633;28;20329;-61
2021/12/21 10:42:50;;;;;;;1.83;1.20;;;;;;;-7.77;65.46;97630.44;5071305;28;20348;-61
2021/12/21 10:45:19;;;;;;;3.00;1.70;;;;;;;-7.88;66.19;97621.94;5071082;28;20302;-61
2021/12/21 10:47:46;;;;;;;4.57;2.10;;;;;;;-7.67;66.51;97628.72;5071413;28;20282;-60
2021/12/21 10:50:15;;;;;;;3.53;1.50;;;;;;;-7.74;65.33;97642.34;5071234;28;20290;-60
2021/12/21 10:52:43;;;;;;;1.87;1.60;;;;;;;-7.79;65.22;97632.13;5070290;28;20290;-60
2021/12/21 10:55:10;;;;;;;6.27;1.90;;;;;;;-7.84;64.06;97638.09;5069617;28;20283;-61
2021/12/21 10:57:37;;;;;;;4.63;2.07;;;;;;;-7.95;62.65;97643.22;5070717;28;20322;-61
2021/12/21 11:00:14;;;;;;;3.80;2.33;;;;;;;-7.89;63.03;97639.81;5071065;28;20642;-61
2021/12/21 11:02:42;;;;;;;2.83;1.30;;;;;;;-8.12;62.32;97642.38;5071094;28;20326;-61
2021/12/21 11:05:12;;;;;;;6.33;1.80;;;;;;;-8.28;63.24;97640.66;5071073;28;20768;-64
2021/12/21 11:07:44;;;;;;;2.90;1.30;;;;;;;-8.39;63.85;97638.94;5070738;28;20628;-68
2021/12/21 11:10:16;;;;;;;9.98;2.35;;;;;;;-7.84;64.52;97626.19;5071339;28;20330;-68
2021/12/21 11:12:46;;;;;;;2.43;1.20;;;;;;;-7.55;63.21;97644.03;5072219;28;20120;-66
2021/12/21 11:15:16;;;;;;;2.60;1.77;;;;;;;-7.82;62.94;97642.34;5072325;28;20294;-65
2021/12/21 11:17:43;;;;;;;2.30;1.27;;;;;;;-7.61;64.07;97639.78;5072129;28;20620;-64
2021/12/21 11:20:13;;;;;;;1.60;1.20;;;;;;;-8.02;63.97;97654.28;5072235;28;20683;-64
2021/12/21 11:22:43;;;;;;;2.13;1.07;;;;;;;-8.27;64.26;97611.72;5071997;28;20286;-65
2021/12/21 11:25:12;;;;;;;2.97;1.17;;;;;;;-8.52;64.39;97639.78;5072113;28;20291;-64
2021/12/21 11:27:41;;;;;;;3.07;1.10;;;;;;;-8.71;64.94;97641.47;5070318;28;20295;-64
2021/12/21 11:30:10;;;;;;;3.13;1.33;;;;;;;-8.54;65.19;97637.22;5071160;28;20309;-66
2021/12/21 11:32:43;;;;;;;2.33;1.90;;;;;;;-8.39;64.92;97652.56;5071373;28;20301;-63
2021/12/21 11:38:03;;;;;;;1.47;1.33;;;;;;;-8.99;66.26;97661.78;5071455;28;20040;-68
2021/12/21 11:40:32;;;;;;;7.13;1.30;;;;;;;-8.52;66.06;97658.47;5070792;28;20770;-69
2021/12/21 11:43:14;;;;;;;1.87;1.10;;;;;;;-8.38;63.57;97656.81;5070405;28;20635;-64
2021/12/21 11:45:50;;;;;;;1.40;1.30;;;;;;;-8.35;62.91;97656.81;5069953;28;20320;-64
2021/12/21 11:48:31;;;;;;;2.17;0.80;;;;;;;-8.23;62.69;97656.81;5071714;28;20406;-69
2021/12/21 11:51:03;;;;;;;3.80;1.00;;;;;;;-8.45;62.09;97657.63;5071547;28;20294;-71
2021/12/21 11:53:30;;;;;;;2.77;1.30;;;;;;;-8.52;62.21;97655.94;5071393;28;20287;-70
2021/12/21 11:55:57;;;;;;;3.13;1.57;;;;;;;-8.43;62.27;97668.72;5070667;28;20782;-69
2021/12/21 11:58:26;;;;;;;3.93;1.10;;;;;;;-8.41;62.39;97654.25;5072299;28;20775;-72
2021/12/21 12:00:56;;;;;;;1.53;0.90;;;;;;;-8.54;62.02;97675.50;5071957;28;20362;-71
2021/12/21 12:03:26;;;;;;;2.93;1.83;;;;;;;-8.59;62.41;97667.00;5072911;28;20377;-70
2021/12/21 12:05:56;;;;;;;1.53;0.97;;;;;;;-8.44;62.59;97671.28;5071575;28;20295;-70
2021/12/21 12:08:25;;;;;;;6.47;2.07;;;;;;;-8.46;62.75;97673.81;5071245;28;20287;-71
2021/12/21 12:10:55;;;;;;;6.90;1.53;;;;;;;-8.47;63.36;97674.66;5068907;28;20348;-72